Time;durP1;ratioP1;P1;durP2;ratioP2;P2;SDS_P1;SDS_P2;PMS_P1;PMS_P2;Temp;Humidity;BMP_temperature;BMP_pressure;BME280_temperature;BME280_humidity;BME280_pressure;Samples;Min_cycle;Max_cycle;Signal;HPM_P1;HPM_P2
2020/12/20 00:00:08;;;;;;;20.00;11.85;;;;;;;;;;4347159;33;20573;-64
2020/12/20 00:02:38;;;;;;;21.87;13.52;;;;;;;;;;4347897;33;20102;-64
2020/12/20 00:05:07;;;;;;;21.17;12.37;;;;;;;;;;4346613;33;20250;-64
2020/12/20 00:07:37;;;;;;;23.35;14.20;;;;;;;;;;4332235;33;20071;-64
2020/12/20 00:10:09;;;;;;;19.30;13.25;;;;;;;;;;4318698;33;20157;-64
2020/12/20 00:12:38;;;;;;;23.80;13.68;;;;;;;;;;4332073;33;20091;-64
2020/12/20 00:15:07;;;;;;;20.48;12.37;;;;;;;;;;4332333;33;20078;-64
2020/12/20 00:17:33;;;;;;;;;;;;;;;;;;4331705;33;20543;-64
2020/12/20 00:20:00;;;;;;;21.77;11.30;;;;;;;;;;4332027;33;19974;-63
2020/12/20 00:22:31;;;;;;;20.55;11.05;;;;;;;;;;4332182;33;20092;-64
2020/12/20 00:25:00;;;;;;;17.85;11.00;;;;;;;;;;4332107;33;20094;-64
2020/12/20 00:27:28;;;;;;;21.25;12.02;;;;;;;;;;4331786;33;20493;-64
2020/12/20 00:30:08;;;;;;;20.33;12.00;;;;;;;;;;4334234;33;20066;-64
2020/12/20 00:32:36;;;;;;;20.05;12.35;;;;;;;;;;4347412;33;20082;-64
2020/12/20 00:35:05;;;;;;;25.52;13.02;;;;;;;;;;4346859;32;20078;-64
2020/12/20 00:37:34;;;;;;;21.87;12.25;;;;;;;;;;4346811;32;20449;-65
2020/12/20 00:40:02;;;;;;;24.80;11.90;;;;;;;;;;4347050;33;20089;-64
2020/12/20 00:42:29;;;;;;;21.15;12.82;;;;;;;;;;4346646;33;20085;-65
2020/12/20 00:44:55;;;;;;;19.87;12.18;;;;;;;;;;4346446;33;20465;-64
2020/12/20 00:47:31;;;;;;;18.90;11.20;;;;;;;;;;4346597;33;20086;-64
2020/12/20 00:49:58;;;;;;;23.87;13.05;;;;;;;;;;4348053;32;20157;-65
2020/12/20 00:52:25;;;;;;;21.42;11.10;;;;;;;;;;4347525;33;20166;-65
2020/12/20 00:54:53;;;;;;;19.62;11.30;;;;;;;;;;4346256;33;20074;-64
2020/12/20 00:57:19;;;;;;;20.67;10.65;;;;;;;;;;4346337;33;20525;-64
2020/12/20 00:59:48;;;;;;;18.77;10.50;;;;;;;;;;4346678;33;20509;-64
2020/12/20 01:02:16;;;;;;;24.60;11.57;;;;;;;;;;4335102;33;20082;-64
2020/12/20 01:04:42;;;;;;;19.50;10.73;;;;;;;;;;4358667;32;20079;-64
2020/12/20 01:07:08;;;;;;;;;;;;;;;;;;4334485;32;20071;-65
2020/12/20 01:09:34;;;;;;;19.95;11.75;;;;;;;;;;4331563;33;20117;-65
2020/12/20 01:12:06;;;;;;;22.37;12.57;;;;;;;;;;4332402;33;20083;-64
2020/12/20 01:14:32;;;;;;;25.50;12.35;;;;;;;;;;4331007;33;20097;-65
2020/12/20 01:16:59;;;;;;;;;;;;;;;;;;4331836;33;20516;-64
2020/12/20 01:19:25;;;;;;;;;;;;;;;;;;4332118;33;20039;-64
2020/12/20 01:21:51;;;;;;;22.70;11.82;;;;;;;;;;4331132;33;19970;-65
2020/12/20 01:24:18;;;;;;;;;;;;;;;;;;4331639;33;20447;-65
2020/12/20 01:26:45;;;;;;;23.70;11.98;;;;;;;;;;4331319;33;19966;-64
2020/12/20 01:29:11;;;;;;;;;;;;;;;;;;4331553;33;20089;-63
2020/12/20 01:31:36;;;;;;;21.85;12.07;;;;;;;;;;4340777;33;20108;-64
2020/12/20 01:34:02;;;;;;;;;;;;;;;;;;4343248;33;20075;-65
2020/12/20 01:36:32;;;;;;;15.80;8.83;;;;;;;;;;4330702;33;20472;-63
2020/12/20 01:39:01;;;;;;;16.45;8.95;;;;;;;;;;4332840;33;20164;-64
2020/12/20 01:41:28;;;;;;;20.75;11.00;;;;;;;;;;4331290;33;20156;-64
2020/12/20 01:43:55;;;;;;;12.65;7.78;;;;;;;;;;4343408;33;20086;-65
2020/12/20 01:46:22;;;;;;;14.85;8.70;;;;;;;;;;4343018;33;20177;-65
2020/12/20 01:48:49;;;;;;;14.13;8.25;;;;;;;;;;4343397;33;20072;-66
2020/12/20 01:51:15;;;;;;;19.05;9.68;;;;;;;;;;4343100;33;20086;-63
2020/12/20 01:53:42;;;;;;;21.67;10.20;;;;;;;;;;4330590;33;20079;-65
2020/12/20 01:56:10;;;;;;;18.30;9.77;;;;;;;;;;4332739;33;20498;-64
2020/12/20 01:58:38;;;;;;;14.07;8.82;;;;;;;;;;4330908;33;20082;-64
2020/12/20 02:01:10;;;;;;;10.07;6.03;;;;;;;;;;4342820;33;20090;-64
2020/12/20 02:03:40;;;;;;;9.75;5.43;;;;;;;;;;4333014;33;20102;-66
2020/12/20 02:06:08;;;;;;;8.75;5.70;;;;;;;;;;4338362;33;20138;-65
2020/12/20 02:08:35;;;;;;;8.57;5.50;;;;;;;;;;4330857;33;20086;-64
2020/12/20 02:11:15;;;;;;;8.55;5.37;;;;;;;;;;4330442;33;20619;-64
2020/12/20 02:13:43;;;;;;;8.73;5.65;;;;;;;;;;4333254;33;20075;-63
2020/12/20 02:16:10;;;;;;;10.30;6.40;;;;;;;;;;4331020;33;20201;-65
2020/12/20 02:18:38;;;;;;;9.95;5.30;;;;;;;;;;4331247;33;20071;-65
2020/12/20 02:21:15;;;;;;;10.85;6.07;;;;;;;;;;4330798;33;20067;-64
2020/12/20 02:23:42;;;;;;;15.73;8.10;;;;;;;;;;4318822;33;20086;-64
2020/12/20 02:26:08;;;;;;;22.40;11.60;;;;;;;;;;4330578;33;20107;-65
2020/12/20 02:28:37;;;;;;;23.52;10.27;;;;;;;;;;4330362;33;20071;-65
2020/12/20 02:31:07;;;;;;;24.87;11.68;;;;;;;;;;4339559;33;20460;-64
2020/12/20 02:33:34;;;;;;;23.90;12.37;;;;;;;;;;4333182;33;20078;-64
2020/12/20 02:36:02;;;;;;;27.90;12.13;;;;;;;;;;4345191;32;20085;-64
2020/12/20 02:38:31;;;;;;;23.50;11.65;;;;;;;;;;4346756;32;20097;-65
2020/12/20 02:41:17;;;;;;;23.17;11.68;;;;;;;;;;4335257;33;20078;-64
2020/12/20 02:43:44;;;;;;;22.92;10.93;;;;;;;;;;4345119;33;20074;-63
2020/12/20 02:46:15;;;;;;;25.37;12.80;;;;;;;;;;4333444;33;20066;-64
2020/12/20 02:48:45;;;;;;;26.52;12.05;;;;;;;;;;4345337;33;20172;-64
2020/12/20 02:51:14;;;;;;;22.98;11.90;;;;;;;;;;4333626;32;20079;-64
2020/12/20 02:53:41;;;;;;;26.95;11.82;;;;;;;;;;4346113;32;20071;-64
2020/12/20 02:56:07;;;;;;;31.98;13.25;;;;;;;;;;4333459;32;20151;-64
2020/12/20 02:58:33;;;;;;;28.00;12.25;;;;;;;;;;4345459;33;20071;-64
2020/12/20 03:00:59;;;;;;;25.25;11.93;;;;;;;;;;4333728;33;20135;-64
2020/12/20 03:03:25;;;;;;;36.72;13.15;;;;;;;;;;4345456;33;20086;-64
2020/12/20 03:05:52;;;;;;;;;;;;;;;;;;4340077;33;20083;-64
2020/12/20 03:08:20;;;;;;;21.23;12.00;;;;;;;;;;4331476;33;19954;-65
2020/12/20 03:10:46;;;;;;;25.60;12.48;;;;;;;;;;4330489;33;20153;-64
2020/12/20 03:13:20;;;;;;;29.20;11.95;;;;;;;;;;4330438;33;20091;-65
2020/12/20 03:15:46;;;;;;;26.52;12.23;;;;;;;;;;4330067;33;20166;-64
2020/12/20 03:18:12;;;;;;;;;;;;;;;;;;4317812;33;20086;-64
2020/12/20 03:20:41;;;;;;;51.65;25.90;;;;;;;;;;4330320;33;20049;-64
2020/12/20 03:23:10;;;;;;;42.47;24.20;;;;;;;;;;4331686;33;20083;-64
2020/12/20 03:25:36;;;;;;;39.35;21.73;;;;;;;;;;4330007;33;20180;-64
2020/12/20 03:28:01;;;;;;;40.47;23.25;;;;;;;;;;4317993;33;20073;-64
2020/12/20 03:30:28;;;;;;;38.65;22.73;;;;;;;;;;4332922;33;20075;-64
2020/12/20 03:32:56;;;;;;;44.95;26.33;;;;;;;;;;4317824;33;20151;-64
2020/12/20 03:35:23;;;;;;;43.47;26.58;;;;;;;;;;4331324;33;20457;-64
2020/12/20 03:37:53;;;;;;;;;;;;;;;;;;4331645;33;20079;-64
2020/12/20 03:40:22;;;;;;;46.22;26.85;;;;;;;;;;4331804;33;19966;-64
2020/12/20 03:42:49;;;;;;;45.80;26.58;;;;;;;;;;4317510;33;20075;-64
2020/12/20 03:45:16;;;;;;;44.08;25.75;;;;;;;;;;4329715;33;20094;-64
2020/12/20 03:47:44;;;;;;;42.35;25.58;;;;;;;;;;4332378;33;20075;-65
2020/12/20 03:50:11;;;;;;;55.75;31.00;;;;;;;;;;4320874;33;20075;-66
2020/12/20 03:52:37;;;;;;;55.45;29.00;;;;;;;;;;4320977;33;20075;-64
2020/12/20 03:55:03;;;;;;;;;;;;;;;;;;4334047;33;20087;-65
2020/12/20 03:57:29;;;;;;;44.63;25.62;;;;;;;;;;4333985;33;19987;-65
2020/12/20 03:59:57;;;;;;;41.37;26.55;;;;;;;;;;4320206;33;20098;-64
2020/12/20 04:02:24;;;;;;;44.92;26.70;;;;;;;;;;4344652;33;20074;-65
2020/12/20 04:04:53;;;;;;;50.95;28.98;;;;;;;;;;4342625;33;20098;-64
2020/12/20 04:07:19;;;;;;;50.03;31.52;;;;;;;;;;4346583;33;20079;-64
2020/12/20 04:09:46;;;;;;;50.05;31.48;;;;;;;;;;4348042;32;20098;-64
2020/12/20 04:12:14;;;;;;;47.55;28.30;;;;;;;;;;4346430;33;20078;-64
2020/12/20 04:14:41;;;;;;;50.05;29.95;;;;;;;;;;4347699;33;20070;-64
2020/12/20 04:17:11;;;;;;;53.33;28.92;;;;;;;;;;4346873;33;20102;-63
2020/12/20 04:19:37;;;;;;;50.97;27.55;;;;;;;;;;4346573;33;20078;-65
2020/12/20 04:22:04;;;;;;;56.67;27.90;;;;;;;;;;4346581;33;20078;-64
2020/12/20 04:24:29;;;;;;;;;;;;;;;;;;4322843;33;20097;-65
2020/12/20 04:26:56;;;;;;;57.13;31.83;;;;;;;;;;4347940;32;20051;-64
2020/12/20 04:29:22;;;;;;;49.83;27.27;;;;;;;;;;4346668;33;20067;-65
2020/12/20 04:31:52;;;;;;;55.28;27.27;;;;;;;;;;4344485;33;20060;-65
2020/12/20 04:34:22;;;;;;;47.45;26.52;;;;;;;;;;4332101;33;20576;-65
2020/12/20 04:36:48;;;;;;;51.58;27.83;;;;;;;;;;4332035;33;20516;-65
2020/12/20 04:39:15;;;;;;;56.10;27.77;;;;;;;;;;4332299;33;20086;-65
2020/12/20 04:41:41;;;;;;;;;;;;;;;;;;4319880;33;20453;-64
2020/12/20 04:44:09;;;;;;;49.50;29.83;;;;;;;;;;4331501;33;20479;-64
2020/12/20 04:46:35;;;;;;;54.20;30.48;;;;;;;;;;4332311;33;20079;-65
2020/12/20 04:49:01;;;;;;;63.03;31.48;;;;;;;;;;4319928;33;20101;-64
2020/12/20 04:51:29;;;;;;;68.07;34.83;;;;;;;;;;4319912;33;20067;-65
2020/12/20 04:53:59;;;;;;;117.80;55.30;;;;;;;;;;4330629;33;20172;-64
2020/12/20 04:56:26;;;;;;;110.60;52.45;;;;;;;;;;4333212;33;20090;-64
2020/12/20 04:58:55;;;;;;;100.07;48.63;;;;;;;;;;4321973;33;20071;-65
2020/12/20 05:01:21;;;;;;;98.40;46.20;;;;;;;;;;4320073;33;20086;-64
2020/12/20 05:03:49;;;;;;;91.37;41.83;;;;;;;;;;4331888;33;20082;-65
2020/12/20 05:06:14;;;;;;;;;;;;;;;;;;4333468;33;20167;-65
2020/12/20 05:08:40;;;;;;;89.47;42.65;;;;;;;;;;4346105;33;20100;-64
2020/12/20 05:11:07;;;;;;;111.47;51.63;;;;;;;;;;4346002;33;20101;-65
2020/12/20 05:13:40;;;;;;;;;;;;;;;;;;4346708;32;20517;-64
2020/12/20 05:16:12;;;;;;;108.03;49.20;;;;;;;;;;4346390;33;19978;-65
2020/12/20 05:18:38;;;;;;;104.07;48.78;;;;;;;;;;4334248;33;20071;-65
2020/12/20 05:21:05;;;;;;;100.50;48.10;;;;;;;;;;4345707;33;20067;-65
2020/12/20 05:23:31;;;;;;;;;;;;;;;;;;4333623;33;20191;-63
2020/12/20 05:26:05;;;;;;;96.03;49.15;;;;;;;;;;4347256;32;19962;-64
2020/12/20 05:28:33;;;;;;;98.57;50.10;;;;;;;;;;4345910;33;20075;-64
2020/12/20 05:31:09;;;;;;;107.87;55.83;;;;;;;;;;4330833;33;20082;-66
2020/12/20 05:33:37;;;;;;;95.22;50.63;;;;;;;;;;4331349;33;20160;-65
2020/12/20 05:36:07;;;;;;;98.55;49.55;;;;;;;;;;4330722;33;20095;-64
2020/12/20 05:38:34;;;;;;;97.75;49.25;;;;;;;;;;4331211;33;20074;-65
2020/12/20 05:41:01;;;;;;;82.93;44.20;;;;;;;;;;4331063;33;20505;-64
2020/12/20 05:43:30;;;;;;;85.60;45.22;;;;;;;;;;4319079;33;20453;-65
2020/12/20 05:45:58;;;;;;;;;;;;;;;;;;4318791;33;20070;-64
2020/12/20 05:48:26;;;;;;;76.12;41.25;;;;;;;;;;4330728;33;19990;-65
2020/12/20 05:51:01;;;;;;;74.95;42.97;;;;;;;;;;4330982;33;20066;-65
2020/12/20 05:53:31;;;;;;;72.05;39.63;;;;;;;;;;4331326;33;20079;-65
2020/12/20 05:56:00;;;;;;;76.10;40.78;;;;;;;;;;4332005;33;20068;-65
2020/12/20 05:58:27;;;;;;;77.87;42.22;;;;;;;;;;4331070;33;20070;-66
2020/12/20 06:00:53;;;;;;;75.37;40.92;;;;;;;;;;4318346;33;20226;-65
2020/12/20 06:03:19;;;;;;;;;;;;;;;;;;4331353;33;20147;-65
2020/12/20 06:05:45;;;;;;;68.15;39.08;;;;;;;;;;4338051;33;20033;-64
2020/12/20 06:08:14;;;;;;;63.95;36.80;;;;;;;;;;4330311;33;20155;-65
2020/12/20 06:10:45;;;;;;;63.35;33.63;;;;;;;;;;4329718;33;20085;-64
2020/12/20 06:13:19;;;;;;;45.33;25.17;;;;;;;;;;4330695;33;20083;-66
2020/12/20 06:15:46;;;;;;;43.10;23.92;;;;;;;;;;4330665;33;20087;-65
2020/12/20 06:18:15;;;;;;;38.88;22.23;;;;;;;;;;4330691;33;20067;-64
2020/12/20 06:20:58;;;;;;;45.70;23.35;;;;;;;;;;4330549;33;20063;-63
2020/12/20 06:23:30;;;;;;;44.38;25.02;;;;;;;;;;4332196;33;20086;-65
2020/12/20 06:25:56;;;;;;;38.92;23.60;;;;;;;;;;4330811;33;20079;-64
2020/12/20 06:28:24;;;;;;;36.33;22.58;;;;;;;;;;4331670;33;20243;-65
2020/12/20 06:30:50;;;;;;;48.25;25.85;;;;;;;;;;4330654;33;20139;-64
2020/12/20 06:33:20;;;;;;;42.83;25.48;;;;;;;;;;4330543;33;20505;-64
2020/12/20 06:35:49;;;;;;;53.05;28.87;;;;;;;;;;4318911;33;20087;-64
2020/12/20 06:38:16;;;;;;;52.83;29.98;;;;;;;;;;4330337;33;20089;-65
2020/12/20 06:40:43;;;;;;;63.35;33.08;;;;;;;;;;4318286;33;20071;-65
2020/12/20 06:43:09;;;;;;;56.67;32.42;;;;;;;;;;4318482;33;20070;-63
2020/12/20 06:45:44;;;;;;;56.00;30.42;;;;;;;;;;4318145;33;20521;-64
2020/12/20 06:48:10;;;;;;;55.65;30.33;;;;;;;;;;4330563;33;20090;-64
2020/12/20 06:50:38;;;;;;;59.05;29.87;;;;;;;;;;4318391;33;20519;-65
2020/12/20 06:53:09;;;;;;;28.00;16.08;;;;;;;;;;4331586;33;20543;-64
2020/12/20 06:55:35;;;;;;;45.20;29.90;;;;;;;;;;4330395;33;20110;-64
2020/12/20 06:58:04;;;;;;;42.15;27.60;;;;;;;;;;4330674;33;20153;-65
2020/12/20 07:00:49;;;;;;;47.65;30.00;;;;;;;;;;4330409;33;20444;-65
2020/12/20 07:03:21;;;;;;;52.05;32.70;;;;;;;;;;4331466;33;20095;-66
2020/12/20 07:05:48;;;;;;;30.00;20.12;;;;;;;;;;4348501;32;20079;-65
2020/12/20 07:08:35;;;;;;;32.28;21.58;;;;;;;;;;4330068;33;20071;-66
2020/12/20 07:11:05;;;;;;;50.58;31.75;;;;;;;;;;4342249;33;20083;-65
2020/12/20 07:13:35;;;;;;;17.37;9.70;;;;;;;;;;4330610;33;20430;-66
2020/12/20 07:16:10;;;;;;;10.90;7.30;;;;;;;;;;4331522;33;20180;-64
2020/12/20 07:18:55;;;;;;;14.70;8.45;;;;;;;;;;4331519;33;20072;-65
2020/12/20 07:21:24;;;;;;;12.52;7.68;;;;;;;;;;4332395;33;20080;-64
2020/12/20 07:24:09;;;;;;;12.32;7.07;;;;;;;;;;4334205;33;20071;-66
2020/12/20 07:26:34;;;;;;;12.82;6.65;;;;;;;;;;4334065;33;20080;-64
2020/12/20 07:29:02;;;;;;;11.40;5.62;;;;;;;;;;4335016;33;20075;-65
2020/12/20 07:31:28;;;;;;;11.05;5.43;;;;;;;;;;4335940;33;20168;-63
2020/12/20 07:33:54;;;;;;;9.52;6.25;;;;;;;;;;4332666;33;20500;-65
2020/12/20 07:36:20;;;;;;;12.18;6.62;;;;;;;;;;4345225;33;20505;-65
2020/12/20 07:38:46;;;;;;;9.35;5.45;;;;;;;;;;4345325;33;20070;-64
2020/12/20 07:41:12;;;;;;;10.68;6.45;;;;;;;;;;4334073;33;20502;-65
2020/12/20 07:43:38;;;;;;;10.80;6.10;;;;;;;;;;4335131;33;20070;-65
2020/12/20 07:46:07;;;;;;;9.60;6.00;;;;;;;;;;4345186;33;20059;-65
2020/12/20 07:48:33;;;;;;;10.82;6.00;;;;;;;;;;4332399;33;20155;-65
2020/12/20 07:51:19;;;;;;;9.38;5.78;;;;;;;;;;4320009;33;20106;-64
2020/12/20 07:53:48;;;;;;;12.18;6.60;;;;;;;;;;4332624;33;20085;-64
2020/12/20 07:56:31;;;;;;;29.20;21.10;;;;;;;;;;4344320;33;20525;-64
2020/12/20 07:59:08;;;;;;;9.25;5.90;;;;;;;;;;4344509;33;20529;-65
2020/12/20 08:01:36;;;;;;;10.48;5.90;;;;;;;;;;4332991;33;20602;-64
2020/12/20 08:04:11;;;;;;;12.90;8.10;;;;;;;;;;4334280;33;20082;-65
2020/12/20 08:06:47;;;;;;;50.35;34.97;;;;;;;;;;4337114;33;20067;-64
2020/12/20 08:09:20;;;;;;;43.08;27.05;;;;;;;;;;4332107;33;20079;-64
2020/12/20 08:11:46;;;;;;;11.98;6.70;;;;;;;;;;4332186;33;20086;-64
2020/12/20 08:14:16;;;;;;;41.28;28.92;;;;;;;;;;4332475;33;20573;-63
2020/12/20 08:16:51;;;;;;;11.10;6.53;;;;;;;;;;4333991;33;20064;-64
2020/12/20 08:19:21;;;;;;;14.13;8.55;;;;;;;;;;4333837;33;20079;-64
2020/12/20 08:22:21;;;;;;;35.60;23.15;;;;;;;;;;4320225;33;20142;-65
2020/12/20 08:24:47;;;;;;;39.15;26.60;;;;;;;;;;4312159;33;20079;-64
2020/12/20 08:27:15;;;;;;;41.92;27.85;;;;;;;;;;4332408;33;20074;-65
2020/12/20 08:29:45;;;;;;;56.55;36.53;;;;;;;;;;4333204;33;20085;-66
2020/12/20 08:32:16;;;;;;;61.60;39.88;;;;;;;;;;4347484;32;20448;-65
2020/12/20 08:34:42;;;;;;;53.25;33.80;;;;;;;;;;4359070;32;20610;-64
2020/12/20 08:37:09;;;;;;;56.80;34.03;;;;;;;;;;4346744;33;20078;-65
2020/12/20 08:39:35;;;;;;;50.65;33.10;;;;;;;;;;4334441;33;20176;-64
2020/12/20 08:42:24;;;;;;;42.58;25.15;;;;;;;;;;4346182;33;20079;-64
2020/12/20 08:44:49;;;;;;;49.75;29.95;;;;;;;;;;4346542;32;20106;-66
2020/12/20 08:47:20;;;;;;;38.20;24.23;;;;;;;;;;4346326;33;20094;-65
2020/12/20 08:49:54;;;;;;;38.70;23.12;;;;;;;;;;4347617;32;20078;-64
2020/12/20 08:52:24;;;;;;;42.08;27.50;;;;;;;;;;4346763;33;20078;-64
2020/12/20 08:54:50;;;;;;;43.28;26.85;;;;;;;;;;4346174;33;20122;-66
2020/12/20 08:57:17;;;;;;;42.97;26.65;;;;;;;;;;4346264;33;20537;-65
2020/12/20 08:59:45;;;;;;;28.42;18.77;;;;;;;;;;4346136;33;20073;-66
2020/12/20 09:02:21;;;;;;;26.17;16.12;;;;;;;;;;4345826;33;20083;-65
2020/12/20 09:04:58;;;;;;;16.75;11.85;;;;;;;;;;4335097;33;20506;-65
2020/12/20 09:07:45;;;;;;;33.20;21.90;;;;;;;;;;4332815;33;20446;-64
2020/12/20 09:10:39;;;;;;;9.95;6.15;;;;;;;;;;4331631;33;20069;-64
2020/12/20 09:13:17;;;;;;;9.65;5.05;;;;;;;;;;4320954;33;20088;-65
2020/12/20 09:15:44;;;;;;;7.97;5.07;;;;;;;;;;4332525;33;20071;-65
2020/12/20 09:18:18;;;;;;;8.27;4.82;;;;;;;;;;4331275;33;20083;-64
2020/12/20 09:20:45;;;;;;;8.55;5.18;;;;;;;;;;4331389;33;20065;-64
2020/12/20 09:23:19;;;;;;;7.95;4.97;;;;;;;;;;4295280;33;20489;-65
2020/12/20 09:25:48;;;;;;;8.00;5.10;;;;;;;;;;4331958;33;20086;-64
2020/12/20 09:28:27;;;;;;;7.43;5.05;;;;;;;;;;4331423;33;20079;-64
2020/12/20 09:30:56;;;;;;;8.00;5.00;;;;;;;;;;4338901;33;20153;-64
2020/12/20 09:33:49;;;;;;;9.52;4.80;;;;;;;;;;4346222;32;20082;-64
2020/12/20 09:36:40;;;;;;;7.60;4.83;;;;;;;;;;4359201;32;20060;-65
2020/12/20 09:39:06;;;;;;;9.43;5.30;;;;;;;;;;4335342;33;20079;-65
2020/12/20 09:41:35;;;;;;;8.18;4.90;;;;;;;;;;4346181;32;20071;-65
2020/12/20 09:44:04;;;;;;;7.70;4.60;;;;;;;;;;4346032;32;20583;-64
2020/12/20 09:46:32;;;;;;;7.60;4.78;;;;;;;;;;4357748;32;20090;-64
2020/12/20 09:48:59;;;;;;;9.00;4.93;;;;;;;;;;4358370;32;20075;-64
2020/12/20 09:51:30;;;;;;;7.70;4.80;;;;;;;;;;4333279;33;20152;-65
2020/12/20 09:53:55;;;;;;;7.12;4.50;;;;;;;;;;4357789;32;20101;-64
2020/12/20 09:56:21;;;;;;;7.90;5.18;;;;;;;;;;4345425;33;20078;-64
2020/12/20 09:58:49;;;;;;;7.28;4.72;;;;;;;;;;4345679;33;20118;-64
2020/12/20 10:01:17;;;;;;;8.95;4.80;;;;;;;;;;4345440;33;20540;-65
2020/12/20 10:03:43;;;;;;;9.30;4.78;;;;;;;;;;4346274;33;20070;-63
2020/12/20 10:06:13;;;;;;;7.78;5.00;;;;;;;;;;4338393;33;20091;-64
2020/12/20 10:08:40;;;;;;;7.45;4.80;;;;;;;;;;4330718;33;20085;-64
2020/12/20 10:11:08;;;;;;;7.45;5.12;;;;;;;;;;4317798;33;20082;-64
2020/12/20 10:13:40;;;;;;;7.60;5.03;;;;;;;;;;4330759;33;20468;-65
2020/12/20 10:16:11;;;;;;;7.70;4.80;;;;;;;;;;4330665;33;20521;-64
2020/12/20 10:18:41;;;;;;;7.12;4.60;;;;;;;;;;4332118;33;20161;-64
2020/12/20 10:21:12;;;;;;;8.77;4.57;;;;;;;;;;4342547;33;20533;-64
2020/12/20 10:23:44;;;;;;;9.57;4.60;;;;;;;;;;4319767;33;20152;-64
2020/12/20 10:26:11;;;;;;;9.23;4.87;;;;;;;;;;4334303;33;20469;-64
2020/12/20 10:28:37;;;;;;;6.47;4.45;;;;;;;;;;4337562;33;20051;-63
2020/12/20 10:31:06;;;;;;;7.93;4.82;;;;;;;;;;4338661;33;20119;-63
2020/12/20 10:33:37;;;;;;;7.07;4.70;;;;;;;;;;4343114;33;20075;-64
2020/12/20 10:36:07;;;;;;;8.27;4.80;;;;;;;;;;4330932;33;20152;-64
2020/12/20 10:38:35;;;;;;;7.05;4.70;;;;;;;;;;4332041;33;20111;-65
2020/12/20 10:41:01;;;;;;;7.35;4.43;;;;;;;;;;4330650;33;20075;-65
2020/12/20 10:43:30;;;;;;;8.23;5.03;;;;;;;;;;4317980;33;20094;-65
2020/12/20 10:45:55;;;;;;;8.05;4.90;;;;;;;;;;4330169;33;20615;-65
2020/12/20 10:48:23;;;;;;;7.85;4.60;;;;;;;;;;4330936;33;20070;-64
2020/12/20 10:50:50;;;;;;;9.55;4.97;;;;;;;;;;4330452;33;20082;-64
2020/12/20 10:53:23;;;;;;;7.93;4.90;;;;;;;;;;4331363;33;20168;-64
2020/12/20 10:55:56;;;;;;;8.35;4.50;;;;;;;;;;4332245;33;20086;-64
2020/12/20 10:58:25;;;;;;;7.90;4.95;;;;;;;;;;4335077;33;20082;-63
2020/12/20 11:00:57;;;;;;;7.15;4.37;;;;;;;;;;4333496;33;20085;-65
2020/12/20 11:03:23;;;;;;;7.18;4.93;;;;;;;;;;4334526;33;20087;-64
2020/12/20 11:05:52;;;;;;;9.43;4.80;;;;;;;;;;4330311;33;20163;-64
2020/12/20 11:08:18;;;;;;;8.35;4.65;;;;;;;;;;4345453;33;20450;-66
2020/12/20 11:10:45;;;;;;;7.25;4.30;;;;;;;;;;4332633;33;20075;-65
2020/12/20 11:13:13;;;;;;;8.40;4.57;;;;;;;;;;4333478;33;20087;-64
2020/12/20 11:15:39;;;;;;;7.07;4.05;;;;;;;;;;4345389;33;20579;-64
2020/12/20 11:18:13;;;;;;;6.03;4.22;;;;;;;;;;4333436;33;20086;-65
2020/12/20 11:20:39;;;;;;;7.12;4.43;;;;;;;;;;4333272;33;20505;-64
2020/12/20 11:23:09;;;;;;;7.50;4.40;;;;;;;;;;4332988;33;20533;-65
2020/12/20 11:25:40;;;;;;;6.30;4.03;;;;;;;;;;4333066;33;20087;-64
2020/12/20 11:28:09;;;;;;;7.37;4.97;;;;;;;;;;4334390;33;20130;-65
2020/12/20 11:30:37;;;;;;;8.18;4.95;;;;;;;;;;4336831;33;20587;-65
2020/12/20 11:33:03;;;;;;;7.93;4.37;;;;;;;;;;4333223;33;20071;-65
2020/12/20 11:35:35;;;;;;;7.12;4.93;;;;;;;;;;4332866;33;20097;-64
2020/12/20 11:38:05;;;;;;;6.05;4.45;;;;;;;;;;4344657;33;20156;-64
2020/12/20 11:40:53;;;;;;;8.18;4.85;;;;;;;;;;4333750;33;20502;-65
2020/12/20 11:43:22;;;;;;;8.38;4.85;;;;;;;;;;4333033;33;20074;-64
2020/12/20 11:46:03;;;;;;;6.72;4.07;;;;;;;;;;4332675;33;20078;-64
2020/12/20 11:48:32;;;;;;;7.60;4.30;;;;;;;;;;4332643;33;20109;-64
2020/12/20 11:51:04;;;;;;;6.62;4.55;;;;;;;;;;4333140;33;20179;-63
2020/12/20 11:53:31;;;;;;;7.87;4.60;;;;;;;;;;4333493;33;20189;-64
2020/12/20 11:56:03;;;;;;;7.50;4.20;;;;;;;;;;4333701;33;20172;-64
2020/12/20 11:58:30;;;;;;;6.43;3.97;;;;;;;;;;4333163;33;20168;-63
2020/12/20 12:00:58;;;;;;;6.43;4.10;;;;;;;;;;4332438;33;20438;-64
2020/12/20 12:03:33;;;;;;;6.75;4.43;;;;;;;;;;4332446;33;20147;-64
2020/12/20 12:06:00;;;;;;;6.87;4.20;;;;;;;;;;4332025;33;20087;-63
2020/12/20 12:08:29;;;;;;;8.80;4.60;;;;;;;;;;4319823;33;20150;-65
2020/12/20 12:10:59;;;;;;;6.80;4.25;;;;;;;;;;4332124;33;20071;-64
2020/12/20 12:13:26;;;;;;;6.78;3.85;;;;;;;;;;4332254;33;20090;-65
2020/12/20 12:15:57;;;;;;;6.62;4.00;;;;;;;;;;4344420;33;20064;-66
2020/12/20 12:18:35;;;;;;;6.15;3.87;;;;;;;;;;4332626;33;20082;-64
2020/12/20 12:21:21;;;;;;;8.20;4.80;;;;;;;;;;4331954;33;20085;-64
2020/12/20 12:23:48;;;;;;;6.65;4.30;;;;;;;;;;4332227;33;20523;-64
2020/12/20 12:26:19;;;;;;;7.03;3.80;;;;;;;;;;4332359;33;20091;-65
2020/12/20 12:28:46;;;;;;;7.97;4.25;;;;;;;;;;4331661;33;20090;-64
2020/12/20 12:31:15;;;;;;;8.98;4.70;;;;;;;;;;4354319;32;20089;-64
2020/12/20 12:33:45;;;;;;;7.87;4.10;;;;;;;;;;4346486;33;20071;-64
2020/12/20 12:36:14;;;;;;;9.95;4.40;;;;;;;;;;4347235;33;20481;-65
2020/12/20 12:38:39;;;;;;;7.70;3.97;;;;;;;;;;4347002;32;20157;-64
2020/12/20 12:41:26;;;;;;;6.30;4.05;;;;;;;;;;4346837;33;20108;-65
2020/12/20 12:43:53;;;;;;;6.72;3.75;;;;;;;;;;4346776;33;20086;-65
2020/12/20 12:46:20;;;;;;;5.75;3.67;;;;;;;;;;4359411;32;20082;-63
2020/12/20 12:48:47;;;;;;;5.55;3.90;;;;;;;;;;4348096;33;20167;-64
2020/12/20 12:51:23;;;;;;;7.10;4.00;;;;;;;;;;4333979;33;20506;-64
2020/12/20 12:53:57;;;;;;;6.85;4.00;;;;;;;;;;4347201;33;20222;-64
2020/12/20 12:56:26;;;;;;;6.75;4.10;;;;;;;;;;4346769;33;20098;-65
2020/12/20 12:59:01;;;;;;;6.78;4.12;;;;;;;;;;4334958;33;20074;-64
2020/12/20 13:01:31;;;;;;;7.72;4.30;;;;;;;;;;4346417;33;20064;-64
2020/12/20 13:03:59;;;;;;;6.65;4.60;;;;;;;;;;4345987;33;20070;-63
2020/12/20 13:06:28;;;;;;;6.00;3.97;;;;;;;;;;4347141;32;20078;-64
2020/12/20 13:08:58;;;;;;;6.97;4.15;;;;;;;;;;4335874;33;20075;-64
2020/12/20 13:11:27;;;;;;;8.43;5.15;;;;;;;;;;4336659;33;20086;-65
2020/12/20 13:13:58;;;;;;;8.20;4.68;;;;;;;;;;4334679;33;20121;-63
2020/12/20 13:16:33;;;;;;;9.15;4.30;;;;;;;;;;4334354;33;20094;-65
2020/12/20 13:19:02;;;;;;;7.57;4.20;;;;;;;;;;4348082;32;20175;-64
2020/12/20 13:21:31;;;;;;;7.75;4.43;;;;;;;;;;4346525;33;20094;-64
2020/12/20 13:23:58;;;;;;;7.30;3.97;;;;;;;;;;4333903;33;20587;-65
2020/12/20 13:26:32;;;;;;;7.28;4.53;;;;;;;;;;4346543;33;20075;-66
2020/12/20 13:28:59;;;;;;;7.90;4.37;;;;;;;;;;4334109;33;20090;-63
2020/12/20 13:31:31;;;;;;;8.35;4.47;;;;;;;;;;4330956;33;20176;-64
2020/12/20 13:34:01;;;;;;;6.55;4.28;;;;;;;;;;4331497;33;20075;-66
2020/12/20 13:36:34;;;;;;;9.00;5.18;;;;;;;;;;4332852;33;20098;-65
2020/12/20 13:39:06;;;;;;;5.68;3.97;;;;;;;;;;4332289;33;20075;-64
2020/12/20 13:41:52;;;;;;;7.55;4.57;;;;;;;;;;4330815;33;20074;-65
2020/12/20 13:44:19;;;;;;;;;;;;;;;;;;4331829;33;20162;-65
2020/12/20 13:46:59;;;;;;;6.90;3.92;;;;;;;;;;4331552;33;19969;-64
2020/12/20 13:49:30;;;;;;;5.75;4.10;;;;;;;;;;4331304;33;20067;-64
2020/12/20 13:52:09;;;;;;;6.43;3.95;;;;;;;;;;4331040;33;20081;-66
2020/12/20 13:54:47;;;;;;;6.10;3.75;;;;;;;;;;4319951;33;20083;-65
2020/12/20 13:57:18;;;;;;;5.65;3.72;;;;;;;;;;4318956;33;20086;-63
2020/12/20 13:59:48;;;;;;;7.97;3.90;;;;;;;;;;4319022;33;20075;-64
2020/12/20 14:02:16;;;;;;;6.95;4.10;;;;;;;;;;4330345;33;20089;-65
2020/12/20 14:04:44;;;;;;;5.93;3.83;;;;;;;;;;4331854;33;20075;-63
2020/12/20 14:07:12;;;;;;;5.87;4.12;;;;;;;;;;4341257;33;20086;-64
2020/12/20 14:10:00;;;;;;;7.62;4.28;;;;;;;;;;4330611;33;20074;-64
2020/12/20 14:12:35;;;;;;;5.53;3.87;;;;;;;;;;4332314;33;20091;-64
2020/12/20 14:15:06;;;;;;;7.05;3.90;;;;;;;;;;4331741;33;20063;-65
2020/12/20 14:17:38;;;;;;;6.28;3.80;;;;;;;;;;4343091;33;20127;-65
2020/12/20 14:20:11;;;;;;;7.68;3.70;;;;;;;;;;4342594;33;20507;-65
2020/12/20 14:22:40;;;;;;;6.30;3.40;;;;;;;;;;4330583;33;20079;-63
2020/12/20 14:25:10;;;;;;;7.65;4.15;;;;;;;;;;4331036;33;20067;-65
2020/12/20 14:27:40;;;;;;;5.37;3.60;;;;;;;;;;4331925;33;20071;-64
2020/12/20 14:30:13;;;;;;;6.10;4.00;;;;;;;;;;4332805;33;20075;-65
2020/12/20 14:32:40;;;;;;;5.90;3.87;;;;;;;;;;4330699;33;20229;-64
2020/12/20 14:35:08;;;;;;;8.70;4.50;;;;;;;;;;4331121;33;20083;-65
2020/12/20 14:37:37;;;;;;;7.72;3.78;;;;;;;;;;4330743;33;20078;-65
2020/12/20 14:40:05;;;;;;;6.97;4.20;;;;;;;;;;4330421;33;20549;-65
2020/12/20 14:42:42;;;;;;;6.95;3.83;;;;;;;;;;4319476;33;20075;-65
2020/12/20 14:45:10;;;;;;;6.25;4.00;;;;;;;;;;4332074;33;20083;-64
2020/12/20 14:47:42;;;;;;;6.37;3.75;;;;;;;;;;4330587;33;20060;-65
2020/12/20 14:50:10;;;;;;;7.85;4.00;;;;;;;;;;4330459;33;20067;-65